Fort Bragg, CA

6:15 PM PDT on March 31, 2015 (GMT -0700)
Rohnerville | | Change Station
CLOSE
Current Station
Airport
Location: Fortuna,
Elevation: 394 ft
Nearby Weather Stations
Active Advisory: Frost Advisory

Elev 394 ft 40.55 °N, 124.13 °W | Updated 20 minutes ago

Clear
Clear
54 °F
Feels Like 54 °F
N
10
Wind Variable Wind from NW

Today
High -- | Low -- °F
--% Chance of Precip.
Yesterday
High -- | Low -- °F
Precip. -- in
7:01 AM 7:38 PM
Waxing Gibbous, 90% visible
Pressure 30.31 in
Visibility 10.0 miles
Clouds Scattered Clouds 3600 ft
Dew Point -45 °F
Humidity 4%
Rainfall 0.44 in
Snow Depth Not available.
UV 1 out of 12
Pollen 6.70 out of 12
Air Quality Not available.
Flu Activity Not available.
METAR KFOT 010055Z AUTO 31009KT 10SM SCT036 12/M43 A3031 RMK AO1

More Conditions Fewer Conditions

Pressure 30.31 in
Visibility 10.0 miles
Clouds Scattered Clouds 3600 ft
Dew Point -45 °F
Humidity 4%
Rainfall 0.44 in
Snow Depth Not available.
UV 1 out of 12
Pollen 6.70 out of 12
Air Quality Not available.
Flu Activity Not available.
METAR KFOT 010055Z AUTO 31009KT 10SM SCT036 12/M43 A3031 RMK AO1

More Conditions Fewer Conditions

10-Day Weather Forecast

Almanac

Astronomy

Mar. 31, 2015 Rise Set
Actual Time
Civil Twilight
Nautical Twilight
Astronomical Twilight
Moon
Length of Visible Light
Length of Day
Tomorrow will be .
, % of the Moon is Illuminated

Today's Extremes

State Highs State Lows

Community

WunderPhotos

Upload Photos

1,809,896 photos uploaded!

WunderBlogs® & News

Nearby

Air Quality

  Air Quality AQ Index Pollutant
Not available.

Snow Depth

Station Depth Elevation

Earthquake Activity

City Distance Mag. Time & Date
Minimum magnitude displayed is 2.5.

Coastal Water Temperatures

Place Temperature

Stations

Nearby Weather Stations

Station Location Temp. Windchill Dew Point Humidity Wind Precip. Elev Updated Type
                   
Frost Advisory
Statement as of 2:53 PM PDT on March 31, 2015

... Frost advisory in effect from 3 am to 8 am PDT Wednesday...

The National Weather Service in Eureka has issued a frost
advisory... which is in effect from 3 am to 8 am PDT Wednesday.

* Low temperatures... mid 30s.

* Locations include... Willits... Brooktrails... Covelo... Dos
Rios... Laytonville... Boonville... Philo... Potter Valley and
Anderson Valley.

* For a detailed view of the hazard area... visit
http://www.Weather.Gov/Eureka/hazards

Precautionary/preparedness actions...

A frost advisory means that frost is possible. Sensitive outdoor
plants may be killed if left uncovered.